Francisco de Sa Carneiro Airport Porto PT
ICAO: LPPR
IATA: OPO
Category: Large
Scheduled Services: Yes

Elevation: 228 ft
TransAlt. 4000 ft.

Airport Communications:
APP:121.1
ATIS:124.3
TWR:118

LPPR Zoom In..

Runways:

(A) RW 17 length 11417 ft width 148 ft
ILS 109.90 / hdg 173

(B) RW 35 length 11417 ft width 148 ft
---- / hdg 353

Location; LPPR
Day. 14 / Time. 14.00 Zulu
* QNH: 1017
* Temperature: 24° c. 75.2°f.
* Wind from: 280° Speed 06 kn.
Dewpoint: 16° c.
Visibility: 10 km or more,
No clouds below 1,500 m.
No cumulonimbus, and no significant weather
fenomena in the aerodrome or its vicinity.

LPPR 141400Z 28006KT 250V310 CAVOK 24/16 Q1017


Wind From 280°
Speed 06 kn.

 
 
jpsmedia.com for Web Design worldairports.se 2018   terms of use